Time;durP1;ratioP1;P1;durP2;ratioP2;P2;SDS_P1;SDS_P2;PMS_P1;PMS_P2;Temp;Humidity;BMP_temperature;BMP_pressure;BME280_temperature;BME280_humidity;BME280_pressure;Samples;Min_cycle;Max_cycle;Signal;HPM_P1;HPM_P2
2022/01/07 00:01:30;;;;;;;13.18;7.90;;;;;;;5.41;72.72;96342.44;5113165;28;20533;-65
2022/01/07 00:03:56;;;;;;;15.50;8.02;;;;;;;5.37;72.44;96348.59;5116897;28;20043;-63
2022/01/07 00:06:22;;;;;;;13.57;8.43;;;;;;;5.37;72.71;96350.31;5116835;28;20059;-65
2022/01/07 00:08:48;;;;;;;14.00;7.65;;;;;;;5.32;72.74;96345.22;5116740;28;20469;-63
2022/01/07 00:11:14;;;;;;;13.90;8.20;;;;;;;5.25;73.06;96349.69;5116672;28;20069;-64
2022/01/07 00:13:39;;;;;;;12.13;7.80;;;;;;;5.31;72.66;96359.06;5116669;28;20030;-67
2022/01/07 00:16:05;;;;;;;11.75;8.50;;;;;;;5.24;72.70;96358.31;5116646;28;20024;-65
2022/01/07 00:18:31;;;;;;;12.27;7.90;;;;;;;5.15;73.19;96355.94;5116694;28;20053;-66
2022/01/07 00:20:58;;;;;;;13.85;8.70;;;;;;;5.14;73.21;96364.59;5116520;28;20103;-63
2022/01/07 00:23:23;;;;;;;12.25;7.85;;;;;;;5.11;73.60;96373.28;5116418;28;20035;-65
2022/01/07 00:25:50;;;;;;;16.00;9.27;;;;;;;5.16;73.45;96365.41;5116224;28;20039;-67
2022/01/07 00:28:16;;;;;;;15.75;9.02;;;;;;;5.21;73.00;96370.53;5116502;27;20112;-66
2022/01/07 00:30:42;;;;;;;14.70;8.80;;;;;;;5.10;73.68;96375.91;5116296;28;20016;-67
2022/01/07 00:33:08;;;;;;;12.65;8.80;;;;;;;5.15;73.17;96374.94;5116202;28;20026;-65
2022/01/07 00:35:34;;;;;;;17.08;9.05;;;;;;;5.24;72.98;96373.06;5116338;28;20026;-65
2022/01/07 00:37:59;;;;;;;13.30;8.45;;;;;;;5.24;72.68;96388.63;5116241;28;20016;-67
2022/01/07 00:40:26;;;;;;;13.88;8.52;;;;;;;5.14;72.75;96388.78;5116210;28;20026;-65
2022/01/07 00:42:53;;;;;;;12.57;8.30;;;;;;;5.22;72.64;96400.75;5116198;28;20031;-65
2022/01/07 00:45:20;;;;;;;14.50;8.93;;;;;;;5.22;72.81;96405.94;5116052;28;20023;-69
2022/01/07 00:47:46;;;;;;;15.13;8.63;;;;;;;5.25;72.37;96403.28;5115974;28;20015;-63
2022/01/07 00:50:14;;;;;;;16.85;9.00;;;;;;;5.23;72.26;96411.09;5116027;28;20028;-65
2022/01/07 00:52:40;;;;;;;10.75;7.40;;;;;;;5.19;72.43;96409.44;5115995;28;20374;-66
2022/01/07 00:55:07;;;;;;;13.77;8.82;;;;;;;5.21;72.25;96409.44;5116077;28;20024;-64
2022/01/07 00:57:32;;;;;;;10.90;8.02;;;;;;;5.26;72.02;96405.00;5115821;28;20442;-66
2022/01/07 00:59:58;;;;;;;14.02;8.00;;;;;;;5.29;71.75;96407.53;5115757;28;20058;-68
2022/01/07 01:02:24;;;;;;;13.88;8.82;;;;;;;5.28;71.84;96404.09;5115758;28;20024;-68
2022/01/07 01:04:49;;;;;;;10.70;7.10;;;;;;;5.22;71.97;96405.94;5115884;28;20031;-66
2022/01/07 01:07:16;;;;;;;10.38;7.07;;;;;;;5.17;72.03;96406.88;5115788;28;20050;-66
2022/01/07 01:09:42;;;;;;;11.55;8.30;;;;;;;5.22;71.86;96412.00;5115577;28;20031;-66
2022/01/07 01:12:10;;;;;;;13.20;6.85;;;;;;;5.24;71.95;96412.81;5115756;28;20110;-63
2022/01/07 01:14:35;;;;;;;12.00;7.82;;;;;;;5.21;71.87;96406.84;5114402;28;20481;-65
2022/01/07 01:17:01;;;;;;;15.60;7.72;;;;;;;5.22;71.84;96412.00;5114386;28;20031;-65
2022/01/07 01:19:27;;;;;;;11.85;8.02;;;;;;;5.25;71.74;96417.13;5115434;28;20146;-64
2022/01/07 01:21:54;;;;;;;14.65;7.10;;;;;;;5.24;71.42;96410.19;5115274;28;20024;-65
2022/01/07 01:24:19;;;;;;;11.85;7.53;;;;;;;5.24;71.55;96417.16;5115424;27;20025;-65
2022/01/07 01:26:45;;;;;;;10.65;7.43;;;;;;;5.20;71.57;96415.50;5115190;28;20047;-65
2022/01/07 01:29:11;;;;;;;11.15;7.38;;;;;;;5.12;71.53;96410.44;5115306;28;20020;-63
2022/01/07 01:31:36;;;;;;;10.63;7.55;;;;;;;5.10;71.36;96423.44;5113965;28;20016;-63
2022/01/07 01:34:03;;;;;;;11.98;7.18;;;;;;;4.99;71.33;96417.56;5115117;28;20038;-66
2022/01/07 01:36:30;;;;;;;10.13;6.95;;;;;;;4.91;71.88;96421.16;5115087;28;20043;-67
2022/01/07 01:38:56;;;;;;;10.68;6.53;;;;;;;4.80;71.95;96400.63;5115093;28;20032;-66
2022/01/07 01:41:21;;;;;;;9.68;6.78;;;;;;;4.84;71.81;96418.72;5115006;28;20068;-65
2022/01/07 01:43:49;;;;;;;10.77;6.57;;;;;;;4.69;72.26;96423.25;5114848;28;20023;-65
2022/01/07 01:46:19;;;;;;;9.27;6.38;;;;;;;4.62;72.55;96425.13;5114798;28;20108;-67
2022/01/07 01:48:46;;;;;;;11.82;6.68;;;;;;;4.66;72.38;96424.19;5113559;28;20020;-66
2022/01/07 01:51:12;;;;;;;10.90;6.38;;;;;;;4.59;72.64;96427.75;5114790;28;20110;-63
2022/01/07 01:53:39;;;;;;;11.27;7.20;;;;;;;4.56;72.79;96430.38;5114801;28;20174;-64
2022/01/07 01:56:04;;;;;;;15.23;5.68;;;;;;;4.48;73.11;96425.31;5114710;28;20397;-64
2022/01/07 01:58:31;;;;;;;8.15;6.13;;;;;;;4.58;72.98;96426.03;5114711;28;20023;-65
2022/01/07 02:00:57;;;;;;;10.52;6.05;;;;;;;4.53;73.19;96427.84;5114509;28;20038;-67
2022/01/07 02:03:22;;;;;;;8.48;6.25;;;;;;;4.60;72.97;96423.44;5114435;28;20023;-67
2022/01/07 02:05:48;;;;;;;8.30;5.90;;;;;;;4.61;72.93;96423.38;5114471;27;20058;-66
2022/01/07 02:08:14;;;;;;;9.75;5.82;;;;;;;4.66;72.63;96419.00;5114494;28;20024;-67
2022/01/07 02:10:40;;;;;;;11.30;6.32;;;;;;;4.68;72.41;96425.03;5114375;28;20106;-65
2022/01/07 02:13:06;;;;;;;10.05;6.38;;;;;;;4.65;72.34;96427.66;5114457;28;20034;-66
2022/01/07 02:15:32;;;;;;;7.57;5.05;;;;;;;4.57;72.73;96416.53;5114365;28;20023;-66
2022/01/07 02:17:57;;;;;;;11.23;5.93;;;;;;;4.49;72.53;96424.44;5114263;28;20093;-66
2022/01/07 02:20:26;;;;;;;10.25;5.95;;;;;;;4.55;72.78;96426.09;5114124;28;20055;-64
2022/01/07 02:22:53;;;;;;;8.75;5.40;;;;;;;4.55;72.62;96426.94;5114042;28;20035;-62
2022/01/07 02:25:20;;;;;;;8.88;5.40;;;;;;;4.53;72.57;96428.72;5113660;28;20381;-64
2022/01/07 02:27:47;;;;;;;9.60;5.78;;;;;;;4.51;72.27;96442.53;5114202;28;20481;-64
2022/01/07 02:30:16;;;;;;;7.95;5.30;;;;;;;4.52;72.46;96444.28;5114282;28;20122;-65
2022/01/07 02:32:42;;;;;;;26.13;18.00;;;;;;;4.50;72.29;96443.44;5114003;27;20118;-63
2022/01/07 02:35:11;;;;;;;10.05;7.68;;;;;;;4.58;72.59;96448.50;5114016;28;20643;-68
2022/01/07 02:37:36;;;;;;;9.68;5.57;;;;;;;4.58;71.80;96454.56;5113938;28;20028;-65
2022/01/07 02:40:07;;;;;;;7.85;5.32;;;;;;;4.54;71.77;96448.53;5113979;28;20080;-66
2022/01/07 02:42:32;;;;;;;9.65;5.43;;;;;;;4.58;71.87;96458.88;5113804;28;20043;-66
2022/01/07 02:44:58;;;;;;;8.00;5.93;;;;;;;4.60;72.09;96457.13;5113931;28;20027;-64
2022/01/07 02:47:27;;;;;;;9.10;5.63;;;;;;;4.68;71.27;96463.91;5113782;28;20020;-65
2022/01/07 02:49:53;;;;;;;10.88;5.18;;;;;;;4.70;71.24;96463.88;5113893;28;20108;-65
2022/01/07 02:52:18;;;;;;;7.70;5.32;;;;;;;4.78;70.96;96464.59;5113895;28;20099;-64
2022/01/07 02:54:44;;;;;;;7.82;5.53;;;;;;;4.83;70.86;96469.69;5113713;28;20076;-65
2022/01/07 02:57:09;;;;;;;6.78;4.72;;;;;;;4.78;70.59;96471.50;5113711;28;20633;-66
2022/01/07 02:59:35;;;;;;;10.18;4.90;;;;;;;4.73;70.29;96468.97;5113600;28;20110;-66
2022/01/07 03:02:00;;;;;;;7.40;4.70;;;;;;;4.73;70.59;96470.72;5113479;28;20019;-63
2022/01/07 03:04:27;;;;;;;7.45;4.70;;;;;;;4.73;70.79;96478.50;5113583;28;20385;-65
2022/01/07 03:06:53;;;;;;;5.72;4.35;;;;;;;4.70;70.74;96479.41;5113568;28;20398;-69
2022/01/07 03:09:19;;;;;;;9.32;5.07;;;;;;;4.75;70.22;96476.72;5113631;28;20481;-63
2022/01/07 03:11:45;;;;;;;6.75;4.70;;;;;;;4.74;70.06;96485.38;5113575;28;20041;-67
2022/01/07 03:14:10;;;;;;;8.55;4.57;;;;;;;4.67;70.03;96493.25;5113438;28;20376;-62
2022/01/07 03:16:38;;;;;;;6.07;4.60;;;;;;;4.61;70.09;96492.50;5113418;28;20020;-64
2022/01/07 03:19:04;;;;;;;9.90;5.63;;;;;;;4.61;70.15;96490.75;5113582;28;20024;-68
2022/01/07 03:21:29;;;;;;;6.40;4.72;;;;;;;4.53;69.59;96497.78;5113439;28;20028;-63
2022/01/07 03:23:55;;;;;;;6.22;4.13;;;;;;;4.46;70.39;96491.88;5113432;28;20511;-64
2022/01/07 03:26:21;;;;;;;7.30;4.72;;;;;;;4.52;69.74;96501.28;5113261;28;20040;-68
2022/01/07 03:28:47;;;;;;;7.25;4.63;;;;;;;4.48;70.05;96497.03;5113403;28;20016;-64
2022/01/07 03:31:13;;;;;;;8.63;5.47;;;;;;;4.51;69.50;96495.22;5113277;28;20024;-68
2022/01/07 03:33:38;;;;;;;7.00;5.00;;;;;;;4.49;69.96;96498.72;5113361;28;20354;-63
2022/01/07 03:36:04;;;;;;;7.07;4.63;;;;;;;4.50;69.91;96500.44;5113303;28;20031;-65
2022/01/07 03:38:30;;;;;;;6.50;4.60;;;;;;;4.48;69.53;96503.03;5117050;28;20023;-66
2022/01/07 03:40:56;;;;;;;7.15;4.65;;;;;;;4.49;69.20;96514.25;5116202;28;20069;-66
2022/01/07 03:43:22;;;;;;;6.20;4.22;;;;;;;4.48;69.01;96520.34;5117212;28;20015;-65
2022/01/07 03:45:48;;;;;;;6.07;3.97;;;;;;;4.46;69.39;96509.13;5117313;28;20066;-65
2022/01/07 03:48:14;;;;;;;7.80;4.25;;;;;;;4.41;69.13;96511.78;5117184;28;20012;-62
2022/01/07 03:50:39;;;;;;;4.93;3.80;;;;;;;4.38;68.96;96517.88;5117037;28;20023;-66
2022/01/07 03:53:05;;;;;;;7.18;4.70;;;;;;;4.39;68.98;96519.56;5117126;28;20031;-66
2022/01/07 03:55:31;;;;;;;4.35;3.53;;;;;;;4.45;68.86;96528.16;5117002;28;20072;-67
2022/01/07 03:57:57;;;;;;;7.05;3.75;;;;;;;4.39;68.49;96527.34;5116989;28;20015;-64
2022/01/07 04:00:33;;;;;;;4.47;3.65;;;;;;;4.42;68.17;96529.91;5116940;28;20035;-68
2022/01/07 04:03:07;;;;;;;5.38;3.80;;;;;;;4.42;68.33;96532.47;5116780;28;20066;-64
2022/01/07 04:05:33;;;;;;;4.22;2.90;;;;;;;4.40;68.00;96533.38;5116912;28;20031;-65
2022/01/07 04:07:58;;;;;;;4.85;3.38;;;;;;;4.44;67.71;96537.66;5116901;27;20157;-67
2022/01/07 04:10:24;;;;;;;4.85;2.90;;;;;;;4.40;67.36;96535.97;5116810;28;20024;-66
2022/01/07 04:12:50;;;;;;;4.53;2.85;;;;;;;4.35;67.86;96538.63;5116679;28;20038;-65
2022/01/07 04:15:17;;;;;;;5.13;2.70;;;;;;;4.36;68.28;96549.84;5116655;28;20098;-66
2022/01/07 04:17:45;;;;;;;6.32;3.05;;;;;;;4.39;67.29;96544.59;5116661;28;20024;-66
2022/01/07 04:20:14;;;;;;;4.32;2.95;;;;;;;4.38;67.54;96550.66;5116613;28;20135;-66
2022/01/07 04:22:40;;;;;;;7.80;4.30;;;;;;;4.38;67.48;96543.78;5116593;28;20136;-67
2022/01/07 04:25:12;;;;;;;2.90;2.60;;;;;;;4.43;67.01;96551.47;5116272;28;20149;-67
2022/01/07 04:27:39;;;;;;;4.30;2.80;;;;;;;4.42;66.88;96555.78;5116465;28;20024;-63
2022/01/07 04:30:05;;;;;;;5.93;2.72;;;;;;;4.37;66.59;96554.97;5116408;28;20023;-67
2022/01/07 04:32:31;;;;;;;4.20;2.70;;;;;;;4.34;66.17;96555.06;5116447;28;20047;-66
2022/01/07 04:34:57;;;;;;;4.90;2.75;;;;;;;4.32;66.04;96554.19;5116503;28;20059;-63
2022/01/07 04:37:22;;;;;;;3.83;2.40;;;;;;;4.29;66.05;96568.06;5116230;28;20016;-67
2022/01/07 04:39:48;;;;;;;3.47;2.47;;;;;;;4.25;66.10;96566.34;5116209;27;20026;-68
2022/01/07 04:42:13;;;;;;;3.40;2.95;;;;;;;4.24;65.89;96571.59;5116085;28;20042;-66
2022/01/07 04:44:41;;;;;;;6.20;2.60;;;;;;;4.21;65.92;96571.63;5116134;28;20027;-64
2022/01/07 04:47:10;;;;;;;3.55;2.70;;;;;;;4.18;65.95;96569.91;5116043;28;20084;-66
2022/01/07 04:49:37;;;;;;;4.22;2.33;;;;;;;4.12;65.77;96572.59;5115744;28;20028;-65
2022/01/07 04:52:06;;;;;;;5.80;2.40;;;;;;;4.16;65.43;96572.50;5115943;28;20442;-68
2022/01/07 04:54:32;;;;;;;2.17;1.80;;;;;;;4.12;65.42;96581.19;5116041;28;20027;-69
2022/01/07 04:56:58;;;;;;;2.60;2.35;;;;;;;4.16;65.81;96579.44;5115985;28;20477;-66
2022/01/07 04:59:24;;;;;;;3.03;2.17;;;;;;;4.10;65.01;96588.13;5115901;28;20020;-66
2022/01/07 05:01:50;;;;;;;3.90;1.80;;;;;;;4.04;65.27;96591.63;5115731;28;20470;-61
2022/01/07 05:04:15;;;;;;;6.78;2.30;;;;;;;4.04;65.21;96586.44;5115760;28;20102;-67
2022/01/07 05:09:06;;;;;;;3.70;1.98;;;;;;;4.06;65.02;96594.22;5114554;28;20105;-64
2022/01/07 05:11:32;;;;;;;2.42;1.92;;;;;;;4.03;65.20;96599.41;5115754;28;20107;-65
2022/01/07 05:13:58;;;;;;;2.35;2.10;;;;;;;3.98;64.85;96599.50;5115646;28;20028;-65
2022/01/07 05:16:24;;;;;;;4.10;1.92;;;;;;;4.02;64.96;96603.75;5115585;28;20054;-67
2022/01/07 05:18:49;;;;;;;3.38;2.10;;;;;;;3.98;64.55;96599.50;5115448;28;20063;-63
2022/01/07 05:21:15;;;;;;;2.83;2.10;;;;;;;4.00;65.04;96620.19;5115427;28;20494;-65
2022/01/07 05:23:41;;;;;;;2.95;1.85;;;;;;;4.01;64.75;96612.38;5115414;28;20157;-67
2022/01/07 05:26:07;;;;;;;2.88;2.17;;;;;;;3.97;64.75;96618.47;5115067;27;20401;-67
2022/01/07 05:28:34;;;;;;;3.35;2.17;;;;;;;3.97;64.94;96625.41;5115395;28;20047;-68
2022/01/07 05:31:00;;;;;;;3.60;2.22;;;;;;;4.04;65.23;96621.88;5114029;28;20034;-64
2022/01/07 05:33:26;;;;;;;4.10;2.35;;;;;;;4.06;64.88;96635.63;5115263;28;20024;-65
2022/01/07 05:35:51;;;;;;;2.45;2.00;;;;;;;4.14;64.72;96628.66;5115165;28;20449;-66
2022/01/07 05:38:17;;;;;;;3.83;2.28;;;;;;;4.15;64.74;96632.94;5115051;28;20481;-64
2022/01/07 05:40:42;;;;;;;3.35;2.78;;;;;;;4.19;64.46;96632.91;5115088;28;20023;-68
2022/01/07 05:43:08;;;;;;;2.72;2.25;;;;;;;4.18;64.97;96634.63;5114884;28;20040;-69
2022/01/07 05:45:33;;;;;;;4.15;2.45;;;;;;;4.27;64.62;96649.22;5115089;28;20020;-65
2022/01/07 05:47:59;;;;;;;4.82;2.30;;;;;;;4.25;64.84;96658.75;5114980;28;20427;-67
2022/01/07 05:50:24;;;;;;;2.42;2.15;;;;;;;4.22;64.63;96656.19;5114808;28;20465;-68
2022/01/07 05:52:50;;;;;;;5.15;2.88;;;;;;;4.33;64.87;96645.72;5114775;28;20020;-67
2022/01/07 05:55:16;;;;;;;3.97;3.22;;;;;;;4.40;64.81;96647.38;5114788;28;20023;-65
2022/01/07 05:57:41;;;;;;;3.92;2.55;;;;;;;4.44;63.81;96662.00;5114692;28;20381;-63
2022/01/07 06:00:09;;;;;;;3.25;2.25;;;;;;;4.43;64.37;96660.28;5114203;28;20035;-65
2022/01/07 06:02:34;;;;;;;4.38;2.20;;;;;;;4.44;64.57;96659.41;5114597;28;20023;-70
2022/01/07 06:05:00;;;;;;;4.28;2.92;;;;;;;4.42;63.91;96667.19;5114510;28;20043;-66
2022/01/07 06:07:26;;;;;;;6.43;3.00;;;;;;;4.33;63.81;96664.69;5114510;28;20385;-67
2022/01/07 06:09:51;;;;;;;4.88;3.15;;;;;;;4.40;63.78;96661.16;5114582;28;20122;-64
2022/01/07 06:12:17;;;;;;;4.97;2.20;;;;;;;4.40;63.81;96658.56;5114424;28;20020;-66
2022/01/07 06:14:43;;;;;;;4.85;3.05;;;;;;;4.38;63.82;96662.94;5114358;28;20022;-68
2022/01/07 06:17:10;;;;;;;4.35;2.80;;;;;;;4.41;63.63;96665.47;5114528;28;20020;-68
2022/01/07 06:19:36;;;;;;;6.47;2.33;;;;;;;4.43;63.50;96671.50;5114528;28;20465;-69
2022/01/07 06:22:03;;;;;;;3.20;2.30;;;;;;;4.48;63.55;96662.81;5114326;28;20465;-70
2022/01/07 06:24:29;;;;;;;2.88;2.50;;;;;;;4.49;63.24;96667.97;5114205;28;20099;-66
2022/01/07 06:26:55;;;;;;;3.72;2.53;;;;;;;4.48;63.45;96665.41;5113301;28;20110;-67
2022/01/07 06:29:21;;;;;;;4.68;2.67;;;;;;;4.45;63.46;96676.66;5113388;28;20107;-65
2022/01/07 06:31:47;;;;;;;4.20;2.53;;;;;;;4.47;63.90;96680.09;5113408;28;20536;-67
2022/01/07 06:34:13;;;;;;;5.28;2.75;;;;;;;4.47;63.56;96684.41;5113323;28;20102;-62
2022/01/07 06:36:39;;;;;;;10.13;2.92;;;;;;;4.40;64.06;96675.84;5113231;28;20457;-67
2022/01/07 06:39:05;;;;;;;5.55;3.17;;;;;;;4.50;63.89;96674.00;5113188;28;20041;-67
2022/01/07 06:41:31;;;;;;;4.03;2.88;;;;;;;4.57;64.08;96678.25;5113203;28;20024;-65
2022/01/07 06:43:57;;;;;;;4.05;2.85;;;;;;;4.63;63.87;96678.19;5112939;28;20022;-69
2022/01/07 06:46:22;;;;;;;3.90;3.00;;;;;;;4.72;64.05;96679.78;5113138;28;20015;-64
2022/01/07 06:48:48;;;;;;;5.68;2.90;;;;;;;4.85;63.22;96690.00;5112992;28;20630;-66
2022/01/07 06:51:14;;;;;;;7.47;2.75;;;;;;;4.95;62.87;96689.03;5112983;28;20024;-68
2022/01/07 06:53:39;;;;;;;3.70;2.35;;;;;;;4.95;62.07;96686.44;5113155;28;20027;-68
2022/01/07 06:56:05;;;;;;;3.50;2.22;;;;;;;4.97;62.23;96694.19;5112998;28;20077;-68
2022/01/07 06:58:30;;;;;;;3.65;2.80;;;;;;;5.02;61.96;96685.47;5112995;28;20028;-68
2022/01/07 07:00:56;;;;;;;4.60;2.30;;;;;;;5.06;62.04;96687.13;5112937;28;20038;-62
2022/01/07 07:03:22;;;;;;;5.07;2.72;;;;;;;5.04;61.74;96688.91;5112824;28;20436;-64
2022/01/07 07:05:48;;;;;;;6.15;2.58;;;;;;;5.07;61.48;96693.19;5112823;28;20019;-64
2022/01/07 07:08:14;;;;;;;3.25;2.25;;;;;;;5.12;61.09;96695.72;5112912;28;20079;-63
2022/01/07 07:10:40;;;;;;;2.65;1.83;;;;;;;5.13;60.91;96692.25;5112504;28;20377;-67
2022/01/07 07:13:05;;;;;;;2.55;2.25;;;;;;;5.11;60.51;96689.66;5111835;28;20470;-67
2022/01/07 07:15:31;;;;;;;4.03;2.15;;;;;;;5.14;59.85;96691.34;5112737;28;20102;-67
2022/01/07 07:17:57;;;;;;;3.40;2.55;;;;;;;5.10;60.18;96690.56;5112550;28;20020;-67
2022/01/07 07:20:22;;;;;;;3.15;1.90;;;;;;;5.11;60.29;96692.25;5112658;28;20019;-65
2022/01/07 07:22:48;;;;;;;2.85;2.05;;;;;;;5.17;60.63;96687.00;5112509;28;20035;-66
2022/01/07 07:25:13;;;;;;;2.80;1.93;;;;;;;5.18;60.15;96690.44;5066052;28;1316707;-65
2022/01/07 07:27:40;;;;;;;2.63;2.13;;;;;;;5.22;60.43;96699.03;5113499;28;20042;-69
2022/01/07 07:30:08;;;;;;;8.55;2.40;;;;;;;5.21;60.26;96690.38;5113410;28;20055;-65
2022/01/07 07:32:35;;;;;;;5.03;2.88;;;;;;;5.23;59.89;96691.22;5113305;28;20389;-68
2022/01/07 07:35:13;;;;;;;3.08;2.05;;;;;;;5.25;60.25;96693.81;5113304;28;20389;-63
2022/01/07 07:37:39;;;;;;;2.45;1.90;;;;;;;5.27;59.90;96689.47;5113317;28;20024;-67
2022/01/07 07:40:05;;;;;;;2.97;1.98;;;;;;;5.33;59.55;96694.56;5113301;28;20020;-64
2022/01/07 07:42:31;;;;;;;4.50;2.17;;;;;;;5.33;59.36;96689.38;5111926;28;20495;-64
2022/01/07 07:44:57;;;;;;;5.97;2.30;;;;;;;5.42;60.21;96689.22;5113215;28;20047;-67
2022/01/07 07:47:22;;;;;;;2.25;2.03;;;;;;;5.39;59.51;96685.81;5113121;28;20042;-66
2022/01/07 07:49:48;;;;;;;4.93;2.40;;;;;;;5.41;60.27;96679.72;5113258;28;20032;-65
2022/01/07 07:52:13;;;;;;;4.05;2.47;;;;;;;5.48;58.89;96693.44;5113251;28;20092;-69
2022/01/07 07:54:39;;;;;;;5.75;2.20;;;;;;;5.49;59.23;96682.22;5113128;28;20015;-66
2022/01/07 07:57:05;;;;;;;3.08;2.28;;;;;;;5.47;59.03;96693.47;5113139;28;20032;-65
2022/01/07 07:59:31;;;;;;;3.50;2.50;;;;;;;5.48;59.28;96693.44;5113047;28;20087;-67
2022/01/07 08:01:57;;;;;;;3.95;2.25;;;;;;;5.46;59.06;96695.22;5113059;28;20020;-65
2022/01/07 08:04:22;;;;;;;4.10;2.35;;;;;;;5.56;59.09;96691.63;5113221;28;20032;-67
2022/01/07 08:06:49;;;;;;;4.05;2.13;;;;;;;5.59;58.60;96695.88;5113123;28;20144;-67
2022/01/07 08:09:14;;;;;;;3.25;2.20;;;;;;;5.61;58.78;96706.25;5112996;28;20024;-67
2022/01/07 08:11:51;;;;;;;2.80;2.40;;;;;;;5.54;58.67;96700.31;5112990;28;20155;-69
2022/01/07 08:17:05;;;;;;;3.75;2.17;;;;;;;5.51;58.88;96696.00;5113032;28;20075;-65
2022/01/07 08:19:31;;;;;;;2.67;2.35;;;;;;;5.54;59.45;96690.75;5112942;28;20027;-67
2022/01/07 08:21:57;;;;;;;3.28;2.38;;;;;;;5.62;58.27;96702.75;5112797;28;20495;-65
2022/01/07 08:24:23;;;;;;;3.50;2.70;;;;;;;5.64;58.50;96698.41;5115938;28;20028;-68
2022/01/07 08:26:49;;;;;;;3.70;2.67;;;;;;;5.62;58.67;96694.97;5116417;28;20500;-67
2022/01/07 08:29:15;;;;;;;4.38;2.42;;;;;;;5.64;58.95;96703.59;5116756;28;20027;-67
2022/01/07 08:36:52;;;;;;;2.63;2.10;;;;;;;5.64;58.53;96707.06;5116716;28;20088;-65
2022/01/07 08:39:18;;;;;;;3.38;2.60;;;;;;;5.69;58.44;96712.19;5116395;28;20521;-66
2022/01/07 08:41:44;;;;;;;2.78;2.08;;;;;;;5.76;58.36;96706.03;5116285;28;20110;-69
2022/01/07 08:44:11;;;;;;;3.72;2.53;;;;;;;5.81;58.32;96705.94;5116157;28;20465;-64
2022/01/07 08:46:37;;;;;;;4.38;2.53;;;;;;;5.84;58.63;96710.22;5116118;28;20107;-65
2022/01/07 08:49:05;;;;;;;6.63;2.42;;;;;;;5.85;58.00;96714.53;5116149;28;20023;-67
2022/01/07 08:51:31;;;;;;;2.83;2.20;;;;;;;5.83;57.78;96719.75;5116136;28;20016;-63
2022/01/07 08:53:57;;;;;;;3.97;2.70;;;;;;;5.85;57.93;96719.72;5115966;28;20434;-66
2022/01/07 08:56:23;;;;;;;4.63;2.88;;;;;;;5.74;58.15;96715.56;5116135;28;20027;-66
2022/01/07 08:58:54;;;;;;;3.72;2.63;;;;;;;5.84;58.26;96726.63;5115885;28;20011;-66
2022/01/07 09:01:21;;;;;;;4.07;2.50;;;;;;;5.73;57.92;96718.19;5115921;28;20023;-66
2022/01/07 09:03:47;;;;;;;3.88;2.50;;;;;;;5.75;58.25;96726.81;5114593;28;20084;-63
2022/01/07 09:06:13;;;;;;;4.70;3.10;;;;;;;5.67;58.00;96730.38;5115873;28;20027;-66
2022/01/07 09:08:38;;;;;;;6.55;3.40;;;;;;;5.72;58.27;96717.31;5115671;28;20027;-65
2022/01/07 09:11:04;;;;;;;4.65;3.17;;;;;;;5.82;58.45;96723.22;5115611;28;20015;-68
2022/01/07 09:13:29;;;;;;;5.03;3.35;;;;;;;5.78;57.82;96724.16;5115573;28;20454;-66
2022/01/07 09:15:55;;;;;;;5.07;3.22;;;;;;;5.77;58.12;96720.69;5115631;28;20022;-67
2022/01/07 09:18:21;;;;;;;3.97;2.88;;;;;;;5.78;58.63;96717.22;5115656;28;20012;-65
2022/01/07 09:20:48;;;;;;;6.03;3.70;;;;;;;5.82;58.79;96712.84;5115426;28;20393;-70
2022/01/07 09:23:15;;;;;;;4.50;2.47;;;;;;;5.90;58.74;96708.38;5115367;27;20023;-63
2022/01/07 09:25:42;;;;;;;5.15;3.17;;;;;;;6.03;58.29;96716.84;5115313;28;20043;-67
2022/01/07 09:28:08;;;;;;;9.85;4.00;;;;;;;6.08;57.82;96724.56;5115358;28;20132;-65
2022/01/07 09:30:35;;;;;;;6.90;3.20;;;;;;;6.01;58.13;96721.19;5115302;27;20429;-69
2022/01/07 09:33:02;;;;;;;5.50;3.72;;;;;;;6.04;57.94;96710.78;5115173;28;20031;-64
2022/01/07 09:35:27;;;;;;;4.25;3.30;;;;;;;6.00;58.34;96711.69;5114161;28;20039;-65
2022/01/07 09:37:54;;;;;;;9.10;5.05;;;;;;;6.14;58.46;96708.03;5115269;28;20465;-66
2022/01/07 09:40:20;;;;;;;6.40;4.85;;;;;;;6.16;58.41;96703.66;5115209;28;20031;-65
2022/01/07 09:43:02;;;;;;;5.82;4.47;;;;;;;6.34;58.56;96706.78;5115012;28;20028;-64
2022/01/07 09:45:29;;;;;;;4.75;3.42;;;;;;;6.48;57.43;96704.81;5115018;28;20147;-69
2022/01/07 09:47:56;;;;;;;5.38;3.63;;;;;;;6.57;57.50;96704.59;5115105;28;20019;-64
2022/01/07 09:50:24;;;;;;;7.72;2.88;;;;;;;6.59;57.21;96694.19;5114914;28;20022;-65
2022/01/07 09:52:50;;;;;;;3.83;2.85;;;;;;;6.70;57.58;96700.06;5114889;28;20055;-64
2022/01/07 09:55:16;;;;;;;6.32;3.28;;;;;;;6.80;56.39;96700.72;5114860;28;20546;-64
2022/01/07 09:57:41;;;;;;;6.13;3.08;;;;;;;6.90;57.54;96700.53;5114726;28;20031;-64
2022/01/07 10:00:10;;;;;;;3.88;2.90;;;;;;;7.10;55.95;96705.28;5114833;27;20033;-64
2022/01/07 10:02:36;;;;;;;3.17;2.72;;;;;;;7.03;56.31;96699.38;5114699;28;20035;-66
2022/01/07 10:05:16;;;;;;;6.60;4.40;;;;;;;7.05;56.27;96701.94;5114715;28;20094;-69
2022/01/07 10:07:43;;;;;;;4.03;3.03;;;;;;;7.12;55.80;96700.06;5114723;28;20024;-66
2022/01/07 10:10:14;;;;;;;5.25;3.35;;;;;;;7.22;55.03;96693.75;5114523;28;20156;-66
2022/01/07 10:12:56;;;;;;;3.38;2.75;;;;;;;7.19;55.17;96693.81;5114497;28;20028;-67
2022/01/07 10:15:24;;;;;;;6.95;2.97;;;;;;;7.24;56.24;96693.72;5114568;28;20355;-65
2022/01/07 10:17:55;;;;;;;4.28;2.72;;;;;;;7.21;56.16;96694.66;5114367;28;20043;-68
2022/01/07 10:20:27;;;;;;;5.38;3.70;;;;;;;7.15;55.76;96690.47;5113124;28;20469;-63
2022/01/07 10:23:04;;;;;;;5.53;3.10;;;;;;;7.17;55.46;96693.03;5114115;28;20252;-66
2022/01/07 10:25:34;;;;;;;4.68;3.28;;;;;;;7.12;55.90;96690.53;5114125;28;20497;-66
2022/01/07 10:28:12;;;;;;;15.02;2.97;;;;;;;7.04;56.05;96695.88;5114195;28;20020;-70
2022/01/07 10:30:47;;;;;;;4.40;3.08;;;;;;;7.02;55.90;96686.41;5114161;28;20068;-66
2022/01/07 10:33:18;;;;;;;7.68;3.03;;;;;;;7.12;55.72;96693.13;5114110;28;20024;-68
2022/01/07 10:35:48;;;;;;;10.57;3.17;;;;;;;7.05;55.71;96689.78;5114046;28;20212;-66
2022/01/07 10:38:16;;;;;;;6.30;2.92;;;;;;;7.05;56.04;96684.56;5113945;28;20568;-64
2022/01/07 10:40:42;;;;;;;5.85;3.50;;;;;;;7.15;56.56;96685.25;5114086;28;20107;-66
2022/01/07 10:43:14;;;;;;;6.90;3.22;;;;;;;7.07;56.07;96685.41;5113908;28;20565;-66
2022/01/07 10:45:42;;;;;;;3.78;3.20;;;;;;;6.99;56.00;96684.72;5113778;28;20072;-66
2022/01/07 10:48:08;;;;;;;5.65;3.63;;;;;;;6.90;56.12;96687.53;5113712;28;20382;-66
2022/01/07 10:50:42;;;;;;;5.55;3.45;;;;;;;6.98;56.23;96692.56;5114043;28;20016;-68
2022/01/07 10:53:24;;;;;;;4.43;3.33;;;;;;;6.99;56.36;96691.66;5113837;28;20019;-62
2022/01/07 10:56:01;;;;;;;6.00;2.97;;;;;;;7.05;56.37;96687.19;5113842;28;20028;-67
2022/01/07 10:58:28;;;;;;;3.88;2.60;;;;;;;6.99;55.57;96689.06;5113805;28;20083;-65
2022/01/07 11:00:53;;;;;;;6.75;2.85;;;;;;;7.01;55.66;96705.50;5112489;28;20390;-62
2022/01/07 11:03:19;;;;;;;5.13;3.00;;;;;;;6.94;55.81;96700.44;5113590;28;20134;-65
2022/01/07 11:05:45;;;;;;;3.65;2.85;;;;;;;6.90;56.29;96698.78;5113804;28;20168;-64
2022/01/07 11:08:15;;;;;;;7.30;2.65;;;;;;;6.85;56.29;96700.63;5113585;28;20108;-65
2022/01/07 11:10:42;;;;;;;2.57;2.13;;;;;;;6.76;56.25;96686.06;5113508;28;20081;-66
2022/01/07 11:13:10;;;;;;;3.55;2.80;;;;;;;6.78;56.08;96696.44;5113412;28;20469;-66
2022/01/07 11:15:36;;;;;;;4.10;2.90;;;;;;;6.81;55.99;96697.22;5113424;28;20020;-63
2022/01/07 11:18:02;;;;;;;5.50;2.75;;;;;;;6.85;55.56;96698.03;5113466;28;20020;-64
2022/01/07 11:20:28;;;;;;;5.32;3.67;;;;;;;6.87;56.38;96696.25;5113481;28;20019;-65
2022/01/07 11:22:54;;;;;;;12.75;8.10;;;;;;;6.90;57.64;96696.19;5113310;28;20028;-68
2022/01/07 11:25:29;;;;;;;9.98;4.47;;;;;;;6.95;56.57;96701.28;5113218;28;20055;-67
2022/01/07 11:27:57;;;;;;;4.15;2.83;;;;;;;6.94;55.41;96700.44;5113434;28;20051;-66
2022/01/07 11:30:28;;;;;;;7.32;3.17;;;;;;;6.85;56.46;96699.75;5113360;28;20386;-67
2022/01/07 11:32:55;;;;;;;4.15;3.28;;;;;;;6.76;55.36;96699.06;5113461;28;20084;-66
2022/01/07 11:35:20;;;;;;;4.78;3.17;;;;;;;6.73;56.40;96699.13;5113376;28;20073;-67
2022/01/07 11:37:56;;;;;;;4.43;2.95;;;;;;;6.70;56.55;96694.84;5113195;28;20020;-62
2022/01/07 11:40:33;;;;;;;4.68;3.03;;;;;;;6.71;56.62;96693.09;5113290;28;20073;-65
2022/01/07 11:43:04;;;;;;;4.85;3.13;;;;;;;6.65;56.32;96706.22;5113269;28;20055;-67
2022/01/07 11:45:30;;;;;;;;;;;;;;;6.66;56.73;96701.00;5113707;28;20062;-66
2022/01/07 11:47:55;;;;;;;7.93;2.88;;;;;;;6.69;56.42;96700.91;5113162;28;19916;-64